North Port, Florida
Current Conditions -  °F | °C
As of 1:53 PM on Thursday 23 Oct 2014 (Local Time) from KPGD Reporting Station
Overcast Overcast  
Wind Chill: 82°   Ceiling: 3900
Heat Index: 84°   Visibility: 10mi
Dew Point: 66°   Wind: 13mph
Humidity: 58%   Direction: 60°ENE
Pressure: 29.94"   Gusts: NA
Location:  27.05°N, 82.23°W
Report Text: KPGD 231753Z 06011KT 10SM OVC039 28/19 A2994 RMK AO2 SLP140 T02780189 10289 20189 58014
Loading
Personal Weather Stations






























Interactive Weather Map
Tropical Storm Tracking
New forecast layout! Learn more

10-Day Weather Forecast

Advertisements
Track Severe Weather on mobile